sensor_id;sensor_type;location;lat;lon;timestamp;pressure;altitude;pressure_sealevel;temperature;humidity
68476;BME280;55464;48.266;14.188;2023-04-23T00:01:03;97099.06;;;14.25;55.26
68476;BME280;55464;48.266;14.188;2023-04-23T00:03:30;97091.50;;;14.15;55.54
68476;BME280;55464;48.266;14.188;2023-04-23T00:06:07;97087.16;;;14.17;55.73
68476;BME280;55464;48.266;14.188;2023-04-23T00:08:34;97090.72;;;14.18;55.91
68476;BME280;55464;48.266;14.188;2023-04-23T00:11:02;97086.75;;;14.15;55.84
68476;BME280;55464;48.266;14.188;2023-04-23T00:13:27;97075.56;;;14.01;56.61
68476;BME280;55464;48.266;14.188;2023-04-23T00:15:53;97084.69;;;14.05;57.04
68476;BME280;55464;48.266;14.188;2023-04-23T00:18:19;97085.47;;;14.06;56.49
68476;BME280;55464;48.266;14.188;2023-04-23T00:20:44;97090.19;;;14.02;56.74
68476;BME280;55464;48.266;14.188;2023-04-23T00:23:10;97096.09;;;13.96;56.28
68476;BME280;55464;48.266;14.188;2023-04-23T00:25:35;97089.00;;;13.99;56.19
68476;BME280;55464;48.266;14.188;2023-04-23T00:28:01;97091.78;;;13.99;56.34
68476;BME280;55464;48.266;14.188;2023-04-23T00:30:27;97097.28;;;13.95;56.59
68476;BME280;55464;48.266;14.188;2023-04-23T00:32:52;97099.25;;;13.95;56.37
68476;BME280;55464;48.266;14.188;2023-04-23T00:35:18;97086.97;;;13.92;56.77
68476;BME280;55464;48.266;14.188;2023-04-23T00:37:44;97085.34;;;13.88;56.91
68476;BME280;55464;48.266;14.188;2023-04-23T00:40:10;97079.38;;;13.82;57.28
68476;BME280;55464;48.266;14.188;2023-04-23T00:42:37;97088.91;;;13.88;57.20
68476;BME280;55464;48.266;14.188;2023-04-23T00:45:03;97084.16;;;13.85;57.14
68476;BME280;55464;48.266;14.188;2023-04-23T00:47:30;97081.38;;;13.85;57.67
68476;BME280;55464;48.266;14.188;2023-04-23T00:49:55;97084.94;;;13.86;57.33
68476;BME280;55464;48.266;14.188;2023-04-23T00:52:22;97089.69;;;13.85;57.59
68476;BME280;55464;48.266;14.188;2023-04-23T00:54:47;97079.66;;;13.70;58.53
68476;BME280;55464;48.266;14.188;2023-04-23T00:57:13;97095.13;;;13.74;58.72
68476;BME280;55464;48.266;14.188;2023-04-23T00:59:39;97095.53;;;13.73;57.97
68476;BME280;55464;48.266;14.188;2023-04-23T01:02:04;97101.47;;;13.75;57.93
68476;BME280;55464;48.266;14.188;2023-04-23T01:04:30;97108.16;;;13.74;57.89
68476;BME280;55464;48.266;14.188;2023-04-23T01:06:57;97101.81;;;13.70;58.00
68476;BME280;55464;48.266;14.188;2023-04-23T01:09:23;97118.84;;;13.72;58.34
68476;BME280;55464;48.266;14.188;2023-04-23T01:11:52;97105.38;;;13.70;58.32
68476;BME280;55464;48.266;14.188;2023-04-23T01:14:17;97107.28;;;13.63;58.74
68476;BME280;55464;48.266;14.188;2023-04-23T01:16:43;97104.50;;;13.59;59.02
68476;BME280;55464;48.266;14.188;2023-04-23T01:19:09;97097.69;;;13.53;58.98
68476;BME280;55464;48.266;14.188;2023-04-23T01:21:36;97108.81;;;13.56;59.19
68476;BME280;55464;48.266;14.188;2023-04-23T01:24:03;97106.41;;;13.55;59.73
68476;BME280;55464;48.266;14.188;2023-04-23T01:26:29;97100.03;;;13.47;59.71
68476;BME280;55464;48.266;14.188;2023-04-23T01:28:54;97117.03;;;13.49;59.37
68476;BME280;55464;48.266;14.188;2023-04-23T01:31:21;97115.84;;;13.47;59.51
68476;BME280;55464;48.266;14.188;2023-04-23T01:33:49;97106.31;;;13.44;59.84
68476;BME280;55464;48.266;14.188;2023-04-23T01:36:15;97107.09;;;13.45;59.90
68476;BME280;55464;48.266;14.188;2023-04-23T01:38:40;97117.34;;;13.40;59.80
68476;BME280;55464;48.266;14.188;2023-04-23T01:41:06;97121.66;;;13.34;59.88
68476;BME280;55464;48.266;14.188;2023-04-23T01:43:32;97122.13;;;13.10;61.03
68476;BME280;55464;48.266;14.188;2023-04-23T01:45:58;97123.75;;;13.14;61.00
68476;BME280;55464;48.266;14.188;2023-04-23T01:48:24;97123.75;;;13.14;61.26
68476;BME280;55464;48.266;14.188;2023-04-23T01:50:50;97134.84;;;13.18;60.89
68476;BME280;55464;48.266;14.188;2023-04-23T01:53:17;97138.00;;;13.16;60.48
68476;BME280;55464;48.266;14.188;2023-04-23T01:55:44;97134.81;;;13.14;60.49
68476;BME280;55464;48.266;14.188;2023-04-23T01:58:11;97127.72;;;13.13;60.81
68476;BME280;55464;48.266;14.188;2023-04-23T02:00:36;97122.91;;;13.10;61.18
68476;BME280;55464;48.266;14.188;2023-04-23T02:03:02;97129.94;;;13.04;60.77
68476;BME280;55464;48.266;14.188;2023-04-23T02:05:28;97148.09;;;13.01;60.53
68476;BME280;55464;48.266;14.188;2023-04-23T02:07:55;97138.63;;;13.02;60.74
68476;BME280;55464;48.266;14.188;2023-04-23T02:10:21;97149.34;;;13.08;60.50
68476;BME280;55464;48.266;14.188;2023-04-23T02:12:46;97151.41;;;13.14;60.19
68476;BME280;55464;48.266;14.188;2023-04-23T02:15:13;97155.72;;;13.08;60.27
68476;BME280;55464;48.266;14.188;2023-04-23T02:17:39;97158.47;;;13.08;60.21
68476;BME280;55464;48.266;14.188;2023-04-23T02:20:09;97155.63;;;13.01;60.41
68476;BME280;55464;48.266;14.188;2023-04-23T02:22:36;97144.97;;;13.03;60.09
68476;BME280;55464;48.266;14.188;2023-04-23T02:25:04;97152.00;;;12.97;60.65
68476;BME280;55464;48.266;14.188;2023-04-23T02:27:29;97149.94;;;12.90;60.91
68476;BME280;55464;48.266;14.188;2023-04-23T02:29:55;97150.22;;;12.81;61.39
68476;BME280;55464;48.266;14.188;2023-04-23T02:32:20;97147.03;;;12.79;62.01
68476;BME280;55464;48.266;14.188;2023-04-23T02:34:46;97147.03;;;12.79;62.03
68476;BME280;55464;48.266;14.188;2023-04-23T02:37:11;97138.69;;;12.76;61.82
68476;BME280;55464;48.266;14.188;2023-04-23T02:39:37;97135.88;;;12.72;62.48
68476;BME280;55464;48.266;14.188;2023-04-23T02:42:05;97140.28;;;12.77;62.48
68476;BME280;55464;48.266;14.188;2023-04-23T02:44:30;97140.28;;;12.77;62.22
68476;BME280;55464;48.266;14.188;2023-04-23T02:46:56;97133.56;;;12.78;61.74
68476;BME280;55464;48.266;14.188;2023-04-23T02:49:21;97139.53;;;12.80;61.60
68476;BME280;55464;48.266;14.188;2023-04-23T02:51:46;97133.69;;;12.85;61.68
68476;BME280;55464;48.266;14.188;2023-04-23T02:54:12;97138.06;;;12.90;61.73
68476;BME280;55464;48.266;14.188;2023-04-23T02:56:38;97136.13;;;12.94;61.67
68476;BME280;55464;48.266;14.188;2023-04-23T02:59:03;97141.66;;;12.94;61.63
68476;BME280;55464;48.266;14.188;2023-04-23T03:01:30;97140.09;;;12.93;61.99
68476;BME280;55464;48.266;14.188;2023-04-23T03:03:56;97140.44;;;12.88;62.20
68476;BME280;55464;48.266;14.188;2023-04-23T03:06:21;97138.81;;;12.86;61.76
68476;BME280;55464;48.266;14.188;2023-04-23T03:08:47;97127.34;;;12.84;62.02
68476;BME280;55464;48.266;14.188;2023-04-23T03:11:12;97138.03;;;12.86;62.01
68476;BME280;55464;48.266;14.188;2023-04-23T03:13:37;97139.53;;;12.80;62.33
68476;BME280;55464;48.266;14.188;2023-04-23T03:16:03;97140.75;;;12.82;62.07
68476;BME280;55464;48.266;14.188;2023-04-23T03:18:29;97135.88;;;12.72;62.87
68476;BME280;55464;48.266;14.188;2023-04-23T03:20:54;97126.00;;;12.71;62.86
68476;BME280;55464;48.266;14.188;2023-04-23T03:23:19;97133.19;;;12.79;62.74
68476;BME280;55464;48.266;14.188;2023-04-23T03:25:45;97139.28;;;12.62;63.27
68476;BME280;55464;48.266;14.188;2023-04-23T03:28:10;97142.00;;;12.58;63.63
68476;BME280;55464;48.266;14.188;2023-04-23T03:30:36;97138.81;;;12.56;64.18
68476;BME280;55464;48.266;14.188;2023-04-23T03:33:01;97147.06;;;12.53;64.09
68476;BME280;55464;48.266;14.188;2023-04-23T03:35:27;97139.41;;;12.42;64.78
68476;BME280;55464;48.266;14.188;2023-04-23T03:37:52;97143.78;;;12.43;64.68
68476;BME280;55464;48.266;14.188;2023-04-23T03:40:19;97131.00;;;12.35;65.10
68476;BME280;55464;48.266;14.188;2023-04-23T03:42:44;97146.53;;;12.43;65.18
68476;BME280;55464;48.266;14.188;2023-04-23T03:45:10;97148.16;;;12.48;64.51
68476;BME280;55464;48.266;14.188;2023-04-23T03:47:38;97149.81;;;12.53;64.13
68476;BME280;55464;48.266;14.188;2023-04-23T03:50:03;97143.13;;;12.54;63.67
68476;BME280;55464;48.266;14.188;2023-04-23T03:52:29;97149.09;;;12.56;63.39
68476;BME280;55464;48.266;14.188;2023-04-23T03:54:54;97153.88;;;12.59;63.93
68476;BME280;55464;48.266;14.188;2023-04-23T03:57:20;97147.91;;;12.57;63.68
68476;BME280;55464;48.266;14.188;2023-04-23T03:59:45;97151.53;;;12.61;63.06
68476;BME280;55464;48.266;14.188;2023-04-23T04:02:11;97127.84;;;12.33;63.25
68476;BME280;55464;48.266;14.188;2023-04-23T04:04:36;97160.25;;;12.63;63.09
68476;BME280;55464;48.266;14.188;2023-04-23T04:07:02;97153.09;;;12.62;63.62
68476;BME280;55464;48.266;14.188;2023-04-23T04:09:27;97146.00;;;12.61;63.33
68476;BME280;55464;48.266;14.188;2023-04-23T04:11:53;97143.59;;;12.59;64.23
68476;BME280;55464;48.266;14.188;2023-04-23T04:14:20;97148.41;;;12.62;64.72
68476;BME280;55464;48.266;14.188;2023-04-23T04:16:45;97149.56;;;12.61;65.06
68476;BME280;55464;48.266;14.188;2023-04-23T04:19:11;97149.19;;;12.63;65.00
68476;BME280;55464;48.266;14.188;2023-04-23T04:21:36;97142.38;;;12.57;65.25
68476;BME280;55464;48.266;14.188;2023-04-23T04:24:02;97146.41;;;12.63;65.46
68476;BME280;55464;48.266;14.188;2023-04-23T04:26:31;97153.09;;;12.62;65.57
68476;BME280;55464;48.266;14.188;2023-04-23T04:29:00;97153.94;;;12.62;66.06
68476;BME280;55464;48.266;14.188;2023-04-23T04:31:29;97150.34;;;12.62;65.71
68476;BME280;55464;48.266;14.188;2023-04-23T04:33:55;97156.28;;;12.64;65.51
68476;BME280;55464;48.266;14.188;2023-04-23T04:36:21;97160.28;;;12.66;65.44
68476;BME280;55464;48.266;14.188;2023-04-23T04:38:51;97136.00;;;12.53;65.45
68476;BME280;55464;48.266;14.188;2023-04-23T04:41:20;97156.75;;;12.66;65.61
68476;BME280;55464;48.266;14.188;2023-04-23T04:43:46;97147.53;;;12.58;64.85
68476;BME280;55464;48.266;14.188;2023-04-23T04:46:12;97162.69;;;12.68;65.13
68476;BME280;55464;48.266;14.188;2023-04-23T04:48:38;97164.72;;;12.71;65.25
68476;BME280;55464;48.266;14.188;2023-04-23T04:51:03;97162.72;;;12.72;65.46
68476;BME280;55464;48.266;14.188;2023-04-23T04:53:29;97167.47;;;12.71;65.85
68476;BME280;55464;48.266;14.188;2023-04-23T04:55:54;97159.59;;;12.73;65.24
68476;BME280;55464;48.266;14.188;2023-04-23T04:58:19;97167.94;;;12.77;65.59
68476;BME280;55464;48.266;14.188;2023-04-23T05:00:45;97156.50;;;12.78;65.61
68476;BME280;55464;48.266;14.188;2023-04-23T05:03:13;97165.22;;;12.80;66.24
68476;BME280;55464;48.266;14.188;2023-04-23T05:05:38;97168.81;;;12.84;66.84
68476;BME280;55464;48.266;14.188;2023-04-23T05:08:04;97165.69;;;12.86;66.08
68476;BME280;55464;48.266;14.188;2023-04-23T05:10:29;97168.91;;;12.92;65.80
68476;BME280;55464;48.266;14.188;2023-04-23T05:12:55;97175.31;;;12.96;65.75
68476;BME280;55464;48.266;14.188;2023-04-23T05:15:21;97180.88;;;12.99;65.49
68476;BME280;55464;48.266;14.188;2023-04-23T05:17:47;97184.50;;;13.03;65.86
68476;BME280;55464;48.266;14.188;2023-04-23T05:20:14;97188.50;;;13.06;65.74
68476;BME280;55464;48.266;14.188;2023-04-23T05:22:40;97190.84;;;13.08;65.46
68476;BME280;55464;48.266;14.188;2023-04-23T05:25:08;97194.06;;;13.10;65.55
68476;BME280;55464;48.266;14.188;2023-04-23T05:27:34;97190.91;;;13.11;65.47
68476;BME280;55464;48.266;14.188;2023-04-23T05:30:01;97192.50;;;13.12;65.38
68476;BME280;55464;48.266;14.188;2023-04-23T05:32:27;97183.78;;;13.10;65.57
68476;BME280;55464;48.266;14.188;2023-04-23T05:34:53;97194.16;;;13.17;65.33
68476;BME280;55464;48.266;14.188;2023-04-23T05:37:19;97191.81;;;13.19;64.41
68476;BME280;55464;48.266;14.188;2023-04-23T05:39:45;97195.78;;;13.21;64.64
68476;BME280;55464;48.266;14.188;2023-04-23T05:42:10;97191.47;;;13.24;64.30
68476;BME280;55464;48.266;14.188;2023-04-23T05:44:36;97186.31;;;13.22;64.42
68476;BME280;55464;48.266;14.188;2023-04-23T05:47:02;97195.84;;;13.29;64.06
68476;BME280;55464;48.266;14.188;2023-04-23T05:49:27;97200.59;;;13.28;64.35
68476;BME280;55464;48.266;14.188;2023-04-23T05:51:52;97203.47;;;13.35;64.96
68476;BME280;55464;48.266;14.188;2023-04-23T05:54:18;97199.50;;;13.33;64.39
68476;BME280;55464;48.266;14.188;2023-04-23T05:56:43;97209.06;;;13.39;64.51
68476;BME280;55464;48.266;14.188;2023-04-23T05:59:10;97209.47;;;13.41;64.64
68476;BME280;55464;48.266;14.188;2023-04-23T06:01:35;97196.09;;;13.43;64.34
68476;BME280;55464;48.266;14.188;2023-04-23T06:04:01;97204.44;;;13.47;64.75
68476;BME280;55464;48.266;14.188;2023-04-23T06:06:27;97198.13;;;13.50;64.36
68476;BME280;55464;48.266;14.188;2023-04-23T06:08:53;97208.44;;;13.53;64.48
68476;BME280;55464;48.266;14.188;2023-04-23T06:11:18;97210.41;;;13.52;64.11
68476;BME280;55464;48.266;14.188;2023-04-23T06:13:45;97209.22;;;13.53;63.70
68476;BME280;55464;48.266;14.188;2023-04-23T06:16:11;97205.34;;;13.58;63.73
68476;BME280;55464;48.266;14.188;2023-04-23T06:18:36;97206.56;;;13.60;63.45
68476;BME280;55464;48.266;14.188;2023-04-23T06:21:03;97197.47;;;13.64;64.22
68476;BME280;55464;48.266;14.188;2023-04-23T06:23:29;97203.00;;;13.64;63.99
68476;BME280;55464;48.266;14.188;2023-04-23T06:25:55;97193.50;;;13.61;64.46
68476;BME280;55464;48.266;14.188;2023-04-23T06:28:20;97203.91;;;13.71;65.63
68476;BME280;55464;48.266;14.188;2023-04-23T06:30:46;97196.34;;;13.68;65.48
68476;BME280;55464;48.266;14.188;2023-04-23T06:33:11;97194.44;;;13.76;65.45
68476;BME280;55464;48.266;14.188;2023-04-23T06:35:37;97195.63;;;13.75;66.16
68476;BME280;55464;48.266;14.188;2023-04-23T06:38:02;97203.22;;;13.82;66.02
68476;BME280;55464;48.266;14.188;2023-04-23T06:40:28;97196.88;;;13.81;65.28
68476;BME280;55464;48.266;14.188;2023-04-23T06:42:53;97192.19;;;13.85;65.43
68476;BME280;55464;48.266;14.188;2023-04-23T06:45:19;97180.66;;;13.83;65.84
68476;BME280;55464;48.266;14.188;2023-04-23T06:47:44;97189.78;;;13.84;64.99
68476;BME280;55464;48.266;14.188;2023-04-23T06:50:10;97188.22;;;13.86;63.97
68476;BME280;55464;48.266;14.188;2023-04-23T06:52:35;97193.00;;;13.89;63.67
68476;BME280;55464;48.266;14.188;2023-04-23T06:55:00;97192.16;;;13.82;63.42
68476;BME280;55464;48.266;14.188;2023-04-23T06:57:27;97197.34;;;13.87;64.11
68476;BME280;55464;48.266;14.188;2023-04-23T06:59:52;97194.13;;;13.85;63.80
68476;BME280;55464;48.266;14.188;2023-04-23T07:02:18;97194.16;;;13.88;63.81
68476;BME280;55464;48.266;14.188;2023-04-23T07:04:43;97191.81;;;13.87;64.18
68476;BME280;55464;48.266;14.188;2023-04-23T07:07:09;97200.34;;;13.74;63.91
68476;BME280;55464;48.266;14.188;2023-04-23T07:09:34;97192.50;;;13.76;64.09
68476;BME280;55464;48.266;14.188;2023-04-23T07:12:00;97197.28;;;13.83;63.45
68476;BME280;55464;48.266;14.188;2023-04-23T07:14:26;97201.69;;;13.88;63.99
68476;BME280;55464;48.266;14.188;2023-04-23T07:16:51;97196.16;;;13.88;63.78
68476;BME280;55464;48.266;14.188;2023-04-23T07:19:18;97195.38;;;13.91;63.70
68476;BME280;55464;48.266;14.188;2023-04-23T07:21:44;97197.75;;;13.89;63.34
68476;BME280;55464;48.266;14.188;2023-04-23T07:24:09;97192.19;;;13.85;64.47
68476;BME280;55464;48.266;14.188;2023-04-23T07:26:35;97197.69;;;13.82;64.02
68476;BME280;55464;48.266;14.188;2023-04-23T07:29:04;97193.75;;;13.86;63.30
68476;BME280;55464;48.266;14.188;2023-04-23T07:31:35;97189.06;;;13.90;63.06
68476;BME280;55464;48.266;14.188;2023-04-23T07:34:01;97192.72;;;14.02;63.52
68476;BME280;55464;48.266;14.188;2023-04-23T07:36:26;97203.06;;;14.08;64.26
68476;BME280;55464;48.266;14.188;2023-04-23T07:38:53;97197.16;;;14.10;64.64
68476;BME280;55464;48.266;14.188;2023-04-23T07:41:18;97204.31;;;14.14;64.43
68476;BME280;55464;48.266;14.188;2023-04-23T07:43:44;97201.88;;;14.09;64.34
68476;BME280;55464;48.266;14.188;2023-04-23T07:46:10;97199.56;;;14.15;63.91
68476;BME280;55464;48.266;14.188;2023-04-23T07:48:35;97202.75;;;14.17;63.55
68476;BME280;55464;48.266;14.188;2023-04-23T07:51:01;97197.63;;;14.19;63.65
68476;BME280;55464;48.266;14.188;2023-04-23T07:53:27;97188.53;;;14.18;64.75
68476;BME280;55464;48.266;14.188;2023-04-23T07:55:55;97194.91;;;14.26;64.76
68476;BME280;55464;48.266;14.188;2023-04-23T07:58:22;97198.94;;;14.32;64.32
68476;BME280;55464;48.266;14.188;2023-04-23T08:00:47;97198.97;;;14.36;63.32
68476;BME280;55464;48.266;14.188;2023-04-23T08:03:13;97201.34;;;14.37;63.64
68476;BME280;55464;48.266;14.188;2023-04-23T08:05:38;97190.66;;;14.36;63.41
68476;BME280;55464;48.266;14.188;2023-04-23T08:08:05;97191.06;;;14.42;62.59
68476;BME280;55464;48.266;14.188;2023-04-23T08:10:31;97193.88;;;14.45;63.06
68476;BME280;55464;48.266;14.188;2023-04-23T08:12:56;97195.50;;;14.50;62.85
68476;BME280;55464;48.266;14.188;2023-04-23T08:15:22;97184.41;;;14.50;63.13
68476;BME280;55464;48.266;14.188;2023-04-23T08:17:47;97186.00;;;14.51;62.96
68476;BME280;55464;48.266;14.188;2023-04-23T08:20:13;97190.44;;;14.59;62.97
68476;BME280;55464;48.266;14.188;2023-04-23T08:22:38;97188.09;;;14.65;62.68
68476;BME280;55464;48.266;14.188;2023-04-23T08:25:04;97185.34;;;14.68;62.58
68476;BME280;55464;48.266;14.188;2023-04-23T08:27:29;97182.97;;;14.70;62.12
68476;BME280;55464;48.266;14.188;2023-04-23T08:29:55;97178.66;;;14.73;62.79
68476;BME280;55464;48.266;14.188;2023-04-23T08:32:20;97177.50;;;14.81;61.45
68476;BME280;55464;48.266;14.188;2023-04-23T08:34:46;97180.72;;;14.87;61.57
68476;BME280;55464;48.266;14.188;2023-04-23T08:37:11;97173.56;;;14.89;61.31
68476;BME280;55464;48.266;14.188;2023-04-23T08:39:36;97183.56;;;15.01;61.61
68476;BME280;55464;48.266;14.188;2023-04-23T08:42:23;97183.59;;;15.08;61.16
68476;BME280;55464;48.266;14.188;2023-04-23T08:44:51;97169.72;;;15.12;61.19
68476;BME280;55464;48.266;14.188;2023-04-23T08:47:17;97175.69;;;15.14;61.47
68476;BME280;55464;48.266;14.188;2023-04-23T08:49:44;97172.13;;;15.17;60.25
68476;BME280;55464;48.266;14.188;2023-04-23T08:52:24;97179.69;;;15.24;59.86
68476;BME280;55464;48.266;14.188;2023-04-23T08:54:53;97164.63;;;15.25;61.39
68476;BME280;55464;48.266;14.188;2023-04-23T08:57:24;97163.47;;;15.37;61.46
68476;BME280;55464;48.266;14.188;2023-04-23T08:59:51;97159.13;;;15.39;61.79
68476;BME280;55464;48.266;14.188;2023-04-23T09:02:16;97176.22;;;15.52;60.55
68476;BME280;55464;48.266;14.188;2023-04-23T09:04:43;97168.31;;;15.58;61.44
68476;BME280;55464;48.266;14.188;2023-04-23T09:07:09;97168.31;;;15.65;62.37
68476;BME280;55464;48.266;14.188;2023-04-23T09:09:36;97168.72;;;15.70;62.31
68476;BME280;55464;48.266;14.188;2023-04-23T09:12:06;97163.16;;;15.70;60.80
68476;BME280;55464;48.266;14.188;2023-04-23T09:14:33;97171.56;;;15.81;62.39
68476;BME280;55464;48.266;14.188;2023-04-23T09:16:58;97168.38;;;15.86;60.51
68476;BME280;55464;48.266;14.188;2023-04-23T09:19:26;97159.66;;;15.92;59.81
68476;BME280;55464;48.266;14.188;2023-04-23T09:21:55;97159.25;;;15.97;58.39
68476;BME280;55464;48.266;14.188;2023-04-23T09:24:22;97157.69;;;15.99;59.02
68476;BME280;55464;48.266;14.188;2023-04-23T09:26:50;97161.25;;;16.00;59.31
68476;BME280;55464;48.266;14.188;2023-04-23T09:29:25;97160.88;;;16.05;59.88
68476;BME280;55464;48.266;14.188;2023-04-23T09:31:55;97158.47;;;16.14;58.80
68476;BME280;55464;48.266;14.188;2023-04-23T09:34:22;97147.75;;;16.16;58.90
68476;BME280;55464;48.266;14.188;2023-04-23T09:36:50;97147.34;;;16.21;60.88
68476;BME280;55464;48.266;14.188;2023-04-23T09:39:20;97142.22;;;16.27;59.91
68476;BME280;55464;48.266;14.188;2023-04-23T09:41:46;97148.94;;;16.40;58.39
68476;BME280;55464;48.266;14.188;2023-04-23T09:44:11;97139.81;;;16.40;56.06
68476;BME280;55464;48.266;14.188;2023-04-23T09:46:41;97134.63;;;16.45;56.66
68476;BME280;55464;48.266;14.188;2023-04-23T09:49:08;97133.06;;;16.41;56.12
68476;BME280;55464;48.266;14.188;2023-04-23T09:51:41;97138.22;;;16.50;56.28
68476;BME280;55464;48.266;14.188;2023-04-23T09:54:13;97140.56;;;16.55;55.73
68476;BME280;55464;48.266;14.188;2023-04-23T09:56:40;97132.25;;;16.51;57.00
68476;BME280;55464;48.266;14.188;2023-04-23T09:59:25;97138.63;;;16.52;56.36
68476;BME280;55464;48.266;14.188;2023-04-23T10:01:51;97126.66;;;16.55;57.03
68476;BME280;55464;48.266;14.188;2023-04-23T10:04:23;97125.06;;;16.61;54.92
68476;BME280;55464;48.266;14.188;2023-04-23T10:07:02;97125.84;;;16.65;55.07
68476;BME280;55464;48.266;14.188;2023-04-23T10:09:29;97125.06;;;16.72;55.66
68476;BME280;55464;48.266;14.188;2023-04-23T10:12:00;97112.34;;;16.67;55.78
68476;BME280;55464;48.266;14.188;2023-04-23T10:14:28;97118.31;;;16.73;57.56
68476;BME280;55464;48.266;14.188;2023-04-23T10:17:01;97111.94;;;16.79;57.04
68476;BME280;55464;48.266;14.188;2023-04-23T10:19:28;97120.69;;;16.85;54.74
68476;BME280;55464;48.266;14.188;2023-04-23T10:22:00;97122.22;;;16.93;52.96
68476;BME280;55464;48.266;14.188;2023-04-23T10:24:32;97115.06;;;16.99;51.88
68476;BME280;55464;48.266;14.188;2023-04-23T10:27:03;97112.66;;;16.98;53.01
68476;BME280;55464;48.266;14.188;2023-04-23T10:29:31;97104.72;;;17.00;52.96
68476;BME280;55464;48.266;14.188;2023-04-23T10:32:04;97098.72;;;17.05;52.66
68476;BME280;55464;48.266;14.188;2023-04-23T10:34:33;97094.78;;;16.99;53.44
68476;BME280;55464;48.266;14.188;2023-04-23T10:37:00;97084.41;;;17.03;53.66
68476;BME280;55464;48.266;14.188;2023-04-23T10:39:35;97095.91;;;17.09;53.54
68476;BME280;55464;48.266;14.188;2023-04-23T10:42:01;97076.78;;;17.14;52.63
68476;BME280;55464;48.266;14.188;2023-04-23T10:44:46;97079.19;;;17.16;51.04
68476;BME280;55464;48.266;14.188;2023-04-23T10:47:15;97081.59;;;17.14;51.57
68476;BME280;55464;48.266;14.188;2023-04-23T10:49:42;97081.91;;;17.23;50.72
68476;BME280;55464;48.266;14.188;2023-04-23T10:52:16;97079.56;;;17.25;52.72
68476;BME280;55464;48.266;14.188;2023-04-23T10:54:42;97085.50;;;17.27;52.78
68476;BME280;55464;48.266;14.188;2023-04-23T10:57:09;97073.09;;;17.35;52.86
68476;BME280;55464;48.266;14.188;2023-04-23T10:59:40;97083.81;;;17.41;53.72
68476;BME280;55464;48.266;14.188;2023-04-23T11:02:10;97075.84;;;17.46;53.44
68476;BME280;55464;48.266;14.188;2023-04-23T11:04:43;97071.81;;;17.51;55.09
68476;BME280;55464;48.266;14.188;2023-04-23T11:07:10;97058.25;;;17.53;56.99
68476;BME280;55464;48.266;14.188;2023-04-23T11:09:42;97066.56;;;17.64;54.82
68476;BME280;55464;48.266;14.188;2023-04-23T11:12:12;97059.44;;;17.59;54.63
68476;BME280;55464;48.266;14.188;2023-04-23T11:14:47;97052.25;;;17.62;56.21
68476;BME280;55464;48.266;14.188;2023-04-23T11:17:21;97057.00;;;17.65;56.91
68476;BME280;55464;48.266;14.188;2023-04-23T11:20:13;97052.22;;;17.65;57.44
68476;BME280;55464;48.266;14.188;2023-04-23T11:22:43;97062.94;;;17.67;57.51
68476;BME280;55464;48.266;14.188;2023-04-23T11:25:11;97064.94;;;17.70;57.71
68476;BME280;55464;48.266;14.188;2023-04-23T11:27:38;97052.63;;;17.67;56.78
68476;BME280;55464;48.266;14.188;2023-04-23T11:30:08;97053.00;;;17.69;57.02
68476;BME280;55464;48.266;14.188;2023-04-23T11:32:36;97054.97;;;17.72;56.12
68476;BME280;55464;48.266;14.188;2023-04-23T11:35:01;97043.81;;;17.69;55.28
68476;BME280;55464;48.266;14.188;2023-04-23T11:37:29;97040.25;;;17.68;56.42
68476;BME280;55464;48.266;14.188;2023-04-23T11:39:55;97045.38;;;17.73;55.17
68476;BME280;55464;48.266;14.188;2023-04-23T11:42:20;97051.34;;;17.75;54.13
68476;BME280;55464;48.266;14.188;2023-04-23T11:44:46;97041.84;;;17.69;53.98
68476;BME280;55464;48.266;14.188;2023-04-23T11:47:13;97046.19;;;17.70;54.30
68476;BME280;55464;48.266;14.188;2023-04-23T11:49:41;97039.44;;;17.71;54.48
68476;BME280;55464;48.266;14.188;2023-04-23T11:52:07;97040.63;;;17.70;55.11
68476;BME280;55464;48.266;14.188;2023-04-23T11:54:34;97034.28;;;17.70;55.08
68476;BME280;55464;48.266;14.188;2023-04-23T11:57:00;97027.88;;;17.73;55.55
68476;BME280;55464;48.266;14.188;2023-04-23T11:59:26;97024.66;;;17.78;55.21
68476;BME280;55464;48.266;14.188;2023-04-23T12:01:56;97023.47;;;17.75;54.70
68476;BME280;55464;48.266;14.188;2023-04-23T12:04:24;97018.66;;;17.83;54.39
68476;BME280;55464;48.266;14.188;2023-04-23T12:06:53;97013.84;;;17.84;55.78
68476;BME280;55464;48.266;14.188;2023-04-23T12:09:21;97005.13;;;17.82;54.44
68476;BME280;55464;48.266;14.188;2023-04-23T12:11:46;97002.31;;;17.82;53.86
68476;BME280;55464;48.266;14.188;2023-04-23T12:14:13;97005.50;;;17.87;53.72
68476;BME280;55464;48.266;14.188;2023-04-23T12:16:46;97019.38;;;17.91;54.68
68476;BME280;55464;48.266;14.188;2023-04-23T12:19:19;97015.34;;;17.99;53.12
68476;BME280;55464;48.266;14.188;2023-04-23T12:21:50;96999.81;;;17.98;53.29
68476;BME280;55464;48.266;14.188;2023-04-23T12:24:19;96999.41;;;18.00;53.12
68476;BME280;55464;48.266;14.188;2023-04-23T12:26:58;96978.75;;;17.93;53.50
68476;BME280;55464;48.266;14.188;2023-04-23T12:29:25;96998.91;;;18.08;56.77
68476;BME280;55464;48.266;14.188;2023-04-23T12:31:51;96983.78;;;18.09;54.48
68476;BME280;55464;48.266;14.188;2023-04-23T12:34:19;96984.44;;;18.21;54.85
68476;BME280;55464;48.266;14.188;2023-04-23T12:36:49;96984.41;;;18.24;54.94
68476;BME280;55464;48.266;14.188;2023-04-23T12:39:19;96988.78;;;18.25;56.20
68476;BME280;55464;48.266;14.188;2023-04-23T12:41:49;96984.38;;;18.28;56.25
68476;BME280;55464;48.266;14.188;2023-04-23T12:44:16;96962.50;;;18.23;57.02
68476;BME280;55464;48.266;14.188;2023-04-23T12:46:41;96978.28;;;18.37;56.17
68476;BME280;55464;48.266;14.188;2023-04-23T12:49:07;96974.00;;;18.28;56.77